Woodville, Mississippi
Current Conditions -  °F | °C
As of 10:15 AM on Monday 26 Jan 2015 (Local Time) from KHZR Reporting Station
Clear Clear  
Wind Chill: 51°   Ceiling: Unl
Heat Index: 51°   Visibility: 10mi
Dew Point: 34°   Wind: 14mph
Humidity: 51%   Direction: 350°N
Pressure: 30.19"   Gusts: 21mph
Location:  31.1°N, 91.3°W
Report Text: KHZR 261615Z AUTO 35012G18KT 10SM CLR 11/01 A3019 RMK AO2 T01080010
Loading
Personal Weather Stations






























Interactive Weather Map New forecast layout! Learn more

10-Day Weather Forecast

Advertisements
Track Severe Weather on mobile